GMU weather

Greenville Downtown Airport
Greenville, South Carolina, United States

Public forecast

Using degrees Fahrenheit for public forecast. Weather courtesy of forecast.io.

Current aviation weather report (METAR) for Greenville Downtown Airport

Retrieved 2019/11/14 14:53 UTC (20 minutes ago):

KGMU 141453Z 07004KT 10SM OVC023 03/M07 A3038 RMK AO2 SLP296 T00281067 50011

Aviation forecast (TAF) for Greenville Downtown Airport

Retrieved 2019/11/14 12:39 UTC (3 hours ago):

TAF KGMU 141136Z 1412/1512 04004KT P6SM OVC025 FM141700 05005KT P6SM BKN018 PROB30 1423/1505 4SM -SHRA OVC025 FM150500 02007KT 6SM BR VCSH SCT025 BKN050